createdAt,value
2023-05-10T00:00:02.048Z,1012.321
2023-05-10T00:00:32.052Z,1012.321
2023-05-10T00:01:02.056Z,1012.31
2023-05-10T00:01:32.054Z,1012.304
2023-05-10T00:02:02.134Z,1012.309
2023-05-10T00:02:32.259Z,1012.297
2023-05-10T00:03:02.146Z,1012.286
2023-05-10T00:03:32.140Z,1012.292
2023-05-10T00:04:02.201Z,1012.282
2023-05-10T00:04:32.049Z,1012.279
2023-05-10T00:05:02.055Z,1012.277
2023-05-10T00:05:32.050Z,1012.283
2023-05-10T00:06:02.059Z,1012.276
2023-05-10T00:06:32.050Z,1012.256
2023-05-10T00:07:02.050Z,1012.244
2023-05-10T00:07:32.054Z,1012.236
2023-05-10T00:08:02.061Z,1012.232
2023-05-10T00:08:32.055Z,1012.224
2023-05-10T00:09:02.053Z,1012.227
2023-05-10T00:09:32.061Z,1012.224
2023-05-10T00:10:02.056Z,1012.213
2023-05-10T00:10:32.061Z,1012.198
2023-05-10T00:11:02.048Z,1012.197
2023-05-10T00:11:32.054Z,1012.196
2023-05-10T00:12:02.056Z,1012.196
2023-05-10T00:12:32.053Z,1012.197
2023-05-10T00:13:02.073Z,1012.19
2023-05-10T00:13:32.141Z,1012.182
2023-05-10T00:14:02.062Z,1012.179
2023-05-10T00:14:32.052Z,1012.185
2023-05-10T00:15:02.056Z,1012.184
2023-05-10T00:15:32.059Z,1012.193
2023-05-10T00:16:02.113Z,1012.194
2023-05-10T00:16:32.229Z,1012.193
2023-05-10T00:17:02.124Z,1012.189
2023-05-10T00:17:32.079Z,1012.191
2023-05-10T00:18:02.121Z,1012.197
2023-05-10T00:18:32.087Z,1012.177
2023-05-10T00:19:02.062Z,1012.172
2023-05-10T00:19:32.064Z,1012.171
2023-05-10T00:20:02.057Z,1012.176
2023-05-10T00:20:32.058Z,1012.174
2023-05-10T00:21:02.069Z,1012.182
2023-05-10T00:21:32.060Z,1012.189
2023-05-10T00:22:02.068Z,1012.2
2023-05-10T00:22:32.057Z,1012.208
2023-05-10T00:23:02.055Z,1012.205
2023-05-10T00:23:32.056Z,1012.199
2023-05-10T00:24:02.111Z,1012.196
2023-05-10T00:24:32.061Z,1012.196
2023-05-10T00:25:02.082Z,1012.194
2023-05-10T00:25:32.066Z,1012.206
2023-05-10T00:26:02.063Z,1012.204
2023-05-10T00:26:32.056Z,1012.21
2023-05-10T00:27:02.057Z,1012.211
2023-05-10T00:27:32.069Z,1012.197
2023-05-10T00:28:02.059Z,1012.186
2023-05-10T00:28:32.063Z,1012.182
2023-05-10T00:29:02.063Z,1012.183
2023-05-10T00:29:32.055Z,1012.189
2023-05-10T00:30:02.069Z,1012.173
2023-05-10T00:30:32.062Z,1012.181
2023-05-10T00:31:02.064Z,1012.167
2023-05-10T00:31:32.084Z,1012.175
2023-05-10T00:32:02.091Z,1012.174
2023-05-10T00:32:32.241Z,1012.177
2023-05-10T00:33:02.140Z,1012.17
2023-05-10T00:33:32.057Z,1012.165
2023-05-10T00:34:02.060Z,1012.175
2023-05-10T00:34:32.065Z,1012.188
2023-05-10T00:35:02.061Z,1012.194
2023-05-10T00:35:32.060Z,1012.2
2023-05-10T00:36:02.055Z,1012.2
2023-05-10T00:36:32.064Z,1012.191
2023-05-10T00:37:02.059Z,1012.184
2023-05-10T00:37:32.079Z,1012.191
2023-05-10T00:38:02.070Z,1012.186
2023-05-10T00:38:32.061Z,1012.184
2023-05-10T00:39:02.065Z,1012.187
2023-05-10T00:39:32.061Z,1012.181
2023-05-10T00:40:02.062Z,1012.194
2023-05-10T00:40:32.060Z,1012.197
2023-05-10T00:41:02.075Z,1012.191
2023-05-10T00:41:32.061Z,1012.186
2023-05-10T00:42:02.062Z,1012.18
2023-05-10T00:42:32.084Z,1012.178
2023-05-10T00:43:02.067Z,1012.178
2023-05-10T00:43:32.064Z,1012.169
2023-05-10T00:44:02.072Z,1012.165
2023-05-10T00:44:32.064Z,1012.165
2023-05-10T00:45:02.067Z,1012.173
2023-05-10T00:45:32.066Z,1012.167
2023-05-10T00:46:02.076Z,1012.163
2023-05-10T00:46:32.116Z,1012.154
2023-05-10T00:47:02.081Z,1012.148
2023-05-10T00:47:32.088Z,1012.153
2023-05-10T00:48:02.105Z,1012.156
2023-05-10T00:48:32.076Z,1012.157
2023-05-10T00:49:02.068Z,1012.141
2023-05-10T00:49:32.060Z,1012.134
2023-05-10T00:50:02.061Z,1012.128
2023-05-10T00:50:32.076Z,1012.128
2023-05-10T00:51:02.072Z,1012.14
2023-05-10T00:51:32.067Z,1012.154
2023-05-10T00:52:02.073Z,1012.146
2023-05-10T00:52:32.062Z,1012.128
2023-05-10T00:53:02.060Z,1012.13
2023-05-10T00:53:32.061Z,1012.121
2023-05-10T00:54:02.059Z,1012.115
2023-05-10T00:54:32.080Z,1012.111
2023-05-10T00:55:02.062Z,1012.115
2023-05-10T00:55:32.068Z,1012.104
2023-05-10T00:56:02.067Z,1012.094
2023-05-10T00:56:32.066Z,1012.1
2023-05-10T00:57:02.070Z,1012.093
2023-05-10T00:57:32.065Z,1012.092
2023-05-10T00:58:02.063Z,1012.096
2023-05-10T00:58:32.067Z,1012.097
2023-05-10T00:59:02.065Z,1012.093
2023-05-10T00:59:32.062Z,1012.095
2023-05-10T01:00:02.062Z,1012.091
2023-05-10T01:00:32.068Z,1012.092
2023-05-10T01:01:02.086Z,1012.094
2023-05-10T01:01:32.081Z,1012.101
2023-05-10T01:02:02.130Z,1012.106
2023-05-10T01:02:32.166Z,1012.108
2023-05-10T01:03:02.195Z,1012.121
2023-05-10T01:03:32.125Z,1012.104
2023-05-10T01:04:02.060Z,1012.097
2023-05-10T01:04:32.124Z,1012.104
2023-05-10T01:05:02.102Z,1012.126
2023-05-10T01:05:32.069Z,1012.131
2023-05-10T01:06:02.067Z,1012.139
2023-05-10T01:06:32.067Z,1012.149
2023-05-10T01:07:02.066Z,1012.158
2023-05-10T01:07:32.070Z,1012.16
2023-05-10T01:08:02.071Z,1012.163
2023-05-10T01:08:32.067Z,1012.164
2023-05-10T01:09:02.072Z,1012.166
2023-05-10T01:09:32.067Z,1012.17
2023-05-10T01:10:02.071Z,1012.17
2023-05-10T01:10:32.077Z,1012.174
2023-05-10T01:11:02.067Z,1012.165
2023-05-10T01:11:32.073Z,1012.177
2023-05-10T01:12:02.093Z,1012.169
2023-05-10T01:12:32.078Z,1012.171
2023-05-10T01:13:02.108Z,1012.175
2023-05-10T01:13:32.111Z,1012.176
2023-05-10T01:14:02.087Z,1012.173
2023-05-10T01:14:32.081Z,1012.169
2023-05-10T01:15:02.119Z,1012.19
2023-05-10T01:15:32.085Z,1012.202
2023-05-10T01:16:02.140Z,1012.212
2023-05-10T01:16:32.108Z,1012.225
2023-05-10T01:17:02.082Z,1012.222
2023-05-10T01:17:32.172Z,1012.211
2023-05-10T01:18:02.131Z,1012.208
2023-05-10T01:18:32.074Z,1012.207
2023-05-10T01:19:02.079Z,1012.212
2023-05-10T01:19:32.070Z,1012.211
2023-05-10T01:20:02.072Z,1012.209
2023-05-10T01:20:32.072Z,1012.196
2023-05-10T01:21:02.087Z,1012.201
2023-05-10T01:21:32.076Z,1012.189
2023-05-10T01:22:02.104Z,1012.181
2023-05-10T01:22:32.075Z,1012.164
2023-05-10T01:23:02.089Z,1012.151
2023-05-10T01:23:32.090Z,1012.156
2023-05-10T01:24:02.084Z,1012.156
2023-05-10T01:24:32.102Z,1012.149
2023-05-10T01:25:02.077Z,1012.137
2023-05-10T01:25:32.071Z,1012.13
2023-05-10T01:26:02.074Z,1012.131
2023-05-10T01:26:32.079Z,1012.123
2023-05-10T01:27:02.091Z,1012.114
2023-05-10T01:27:32.091Z,1012.124
2023-05-10T01:28:02.084Z,1012.129
2023-05-10T01:28:32.080Z,1012.122
2023-05-10T01:29:02.082Z,1012.127
2023-05-10T01:29:32.082Z,1012.135
2023-05-10T01:30:14.839Z,1012.14
2023-05-10T01:30:33.132Z,1012.155
2023-05-10T01:31:02.122Z,1012.156
2023-05-10T01:31:32.094Z,1012.168
2023-05-10T01:32:02.079Z,1012.157
2023-05-10T01:32:32.102Z,1012.145
2023-05-10T01:33:02.146Z,1012.139
2023-05-10T01:33:32.079Z,1012.148
2023-05-10T01:34:02.078Z,1012.157
2023-05-10T01:34:32.080Z,1012.173
2023-05-10T01:35:02.093Z,1012.167
2023-05-10T01:35:32.075Z,1012.175
2023-05-10T01:36:02.089Z,1012.179
2023-05-10T01:36:32.079Z,1012.18
2023-05-10T01:37:02.080Z,1012.177
2023-05-10T01:37:32.077Z,1012.185
2023-05-10T01:38:02.085Z,1012.181
2023-05-10T01:38:32.077Z,1012.185
2023-05-10T01:39:02.078Z,1012.179
2023-05-10T01:39:32.082Z,1012.178
2023-05-10T01:40:02.079Z,1012.172
2023-05-10T01:40:32.078Z,1012.171
2023-05-10T01:41:02.085Z,1012.178
2023-05-10T01:41:32.074Z,1012.168
2023-05-10T01:42:02.089Z,1012.169
2023-05-10T01:42:32.073Z,1012.167
2023-05-10T01:43:02.074Z,1012.156
2023-05-10T01:43:32.084Z,1012.152
2023-05-10T01:44:02.082Z,1012.155
2023-05-10T01:44:32.079Z,1012.149
2023-05-10T01:45:02.084Z,1012.157
2023-05-10T01:45:32.074Z,1012.142
2023-05-10T01:46:02.103Z,1012.13
2023-05-10T01:46:32.106Z,1012.122
2023-05-10T01:47:02.202Z,1012.126
2023-05-10T01:47:32.131Z,1012.124
2023-05-10T01:48:02.124Z,1012.118
2023-05-10T01:48:32.073Z,1012.112
2023-05-10T01:49:02.084Z,1012.109
2023-05-10T01:49:32.077Z,1012.108
2023-05-10T01:50:02.074Z,1012.107
2023-05-10T01:50:32.079Z,1012.119
2023-05-10T01:51:02.081Z,1012.124
2023-05-10T01:51:32.073Z,1012.113
2023-05-10T01:52:02.078Z,1012.082
2023-05-10T01:52:32.075Z,1012.07
2023-05-10T01:53:02.093Z,1012.066
2023-05-10T01:53:32.077Z,1012.073
2023-05-10T01:54:02.091Z,1012.066
2023-05-10T01:54:32.085Z,1012.059
2023-05-10T01:55:02.083Z,1012.05
2023-05-10T01:55:32.075Z,1012.048
2023-05-10T01:56:02.082Z,1012.039
2023-05-10T01:56:32.075Z,1012.03
2023-05-10T01:57:02.081Z,1012.024
2023-05-10T01:57:32.072Z,1012.031
2023-05-10T01:58:02.106Z,1012.026
2023-05-10T01:58:32.078Z,1012.02
2023-05-10T01:59:02.081Z,1012.021
2023-05-10T01:59:32.086Z,1012.021
2023-05-10T02:00:02.083Z,1012.031
2023-05-10T02:00:32.111Z,1012.031
2023-05-10T02:01:02.115Z,1012.027
2023-05-10T02:01:32.076Z,1012.024
2023-05-10T02:02:02.081Z,1012.005
2023-05-10T02:02:32.092Z,1012.004
2023-05-10T02:03:02.193Z,1011.986
2023-05-10T02:03:32.136Z,1011.968
2023-05-10T02:04:02.166Z,1011.967
2023-05-10T02:04:32.076Z,1011.95
2023-05-10T02:05:02.083Z,1011.931
2023-05-10T02:05:32.080Z,1011.923
2023-05-10T02:06:02.086Z,1011.909
2023-05-10T02:06:32.099Z,1011.896
2023-05-10T02:07:02.080Z,1011.88
2023-05-10T02:07:32.075Z,1011.865
2023-05-10T02:08:02.084Z,1011.861
2023-05-10T02:08:32.075Z,1011.849
2023-05-10T02:09:02.089Z,1011.839
2023-05-10T02:09:32.077Z,1011.828
2023-05-10T02:10:02.078Z,1011.803
2023-05-10T02:10:32.084Z,1011.794
2023-05-10T02:11:02.088Z,1011.793
2023-05-10T02:11:32.091Z,1011.793
2023-05-10T02:12:02.094Z,1011.787
2023-05-10T02:12:32.125Z,1011.764
2023-05-10T02:13:02.125Z,1011.764
2023-05-10T02:13:32.171Z,1011.738
2023-05-10T02:14:02.091Z,1011.735
2023-05-10T02:14:32.087Z,1011.748
2023-05-10T02:15:02.102Z,1011.746
2023-05-10T02:15:32.084Z,1011.737
2023-05-10T02:16:02.084Z,1011.729
2023-05-10T02:16:32.243Z,1011.72
2023-05-10T02:17:02.191Z,1011.703
2023-05-10T02:17:32.123Z,1011.709
2023-05-10T02:18:02.104Z,1011.705
2023-05-10T02:18:32.080Z,1011.71
2023-05-10T02:19:02.104Z,1011.718
2023-05-10T02:19:32.093Z,1011.699
2023-05-10T02:20:02.078Z,1011.7
2023-05-10T02:20:32.088Z,1011.717
2023-05-10T02:21:02.094Z,1011.709
2023-05-10T02:21:32.087Z,1011.702
2023-05-10T02:22:02.088Z,1011.697
2023-05-10T02:22:32.104Z,1011.697
2023-05-10T02:23:02.085Z,1011.705
2023-05-10T02:23:32.092Z,1011.72
2023-05-10T02:24:02.088Z,1011.72
2023-05-10T02:24:32.083Z,1011.722
2023-05-10T02:25:02.088Z,1011.727
2023-05-10T02:25:32.086Z,1011.728
2023-05-10T02:26:02.083Z,1011.728
2023-05-10T02:26:32.082Z,1011.734
2023-05-10T02:27:02.093Z,1011.74
2023-05-10T02:27:32.090Z,1011.741
2023-05-10T02:28:02.084Z,1011.743
2023-05-10T02:28:32.089Z,1011.746
2023-05-10T02:29:02.090Z,1011.727
2023-05-10T02:29:32.095Z,1011.739
2023-05-10T02:30:02.098Z,1011.743
2023-05-10T02:30:32.083Z,1011.749
2023-05-10T02:31:02.103Z,1011.751
2023-05-10T02:31:32.100Z,1011.762
2023-05-10T02:32:02.103Z,1011.754
2023-05-10T02:32:32.114Z,1011.742
2023-05-10T02:33:02.139Z,1011.749
2023-05-10T02:33:32.086Z,1011.754
2023-05-10T02:34:02.090Z,1011.763
2023-05-10T02:34:32.094Z,1011.745
2023-05-10T02:35:02.088Z,1011.748
2023-05-10T02:35:32.089Z,1011.758
2023-05-10T02:36:02.092Z,1011.756
2023-05-10T02:36:32.090Z,1011.753
2023-05-10T02:37:02.098Z,1011.752
2023-05-10T02:37:32.087Z,1011.738
2023-05-10T02:38:02.091Z,1011.725
2023-05-10T02:38:32.089Z,1011.716
2023-05-10T02:39:02.112Z,1011.709
2023-05-10T02:39:32.087Z,1011.697
2023-05-10T02:40:02.088Z,1011.69
2023-05-10T02:40:32.094Z,1011.685
2023-05-10T02:41:02.088Z,1011.684
2023-05-10T02:41:32.091Z,1011.679
2023-05-10T02:42:02.089Z,1011.691
2023-05-10T02:42:32.087Z,1011.69
2023-05-10T02:43:02.090Z,1011.694
2023-05-10T02:43:32.093Z,1011.701
2023-05-10T02:44:02.102Z,1011.7
2023-05-10T02:44:32.149Z,1011.696
2023-05-10T02:45:02.093Z,1011.705
2023-05-10T02:45:32.117Z,1011.708
2023-05-10T02:46:02.140Z,1011.708
2023-05-10T02:46:32.269Z,1011.708
2023-05-10T02:47:02.094Z,1011.721
2023-05-10T02:47:32.110Z,1011.714
2023-05-10T02:48:02.137Z,1011.708
2023-05-10T02:48:32.092Z,1011.709
2023-05-10T02:49:02.093Z,1011.702
2023-05-10T02:49:32.087Z,1011.704
2023-05-10T02:50:02.103Z,1011.693
2023-05-10T02:50:32.099Z,1011.708
2023-05-10T02:51:02.097Z,1011.722
2023-05-10T02:51:32.102Z,1011.733
2023-05-10T02:52:02.122Z,1011.725
2023-05-10T02:52:32.094Z,1011.72
2023-05-10T02:53:02.108Z,1011.718
2023-05-10T02:53:32.094Z,1011.727
2023-05-10T02:54:02.095Z,1011.727
2023-05-10T02:54:32.093Z,1011.731
2023-05-10T02:55:02.100Z,1011.732
2023-05-10T02:55:32.096Z,1011.728
2023-05-10T02:56:02.093Z,1011.73
2023-05-10T02:56:32.101Z,1011.728
2023-05-10T02:57:02.107Z,1011.739
2023-05-10T02:57:32.103Z,1011.742
2023-05-10T02:58:02.141Z,1011.736
2023-05-10T02:58:32.096Z,1011.736
2023-05-10T02:59:02.095Z,1011.733
2023-05-10T02:59:32.105Z,1011.735
2023-05-10T03:00:02.104Z,1011.752
2023-05-10T03:00:32.099Z,1011.739
2023-05-10T03:01:02.155Z,1011.734
2023-05-10T03:01:32.115Z,1011.734
2023-05-10T03:02:02.102Z,1011.735
2023-05-10T03:02:32.279Z,1011.719
2023-05-10T03:03:02.156Z,1011.715
2023-05-10T03:03:32.097Z,1011.717
2023-05-10T03:04:02.097Z,1011.71
2023-05-10T03:04:32.134Z,1011.695
2023-05-10T03:05:02.159Z,1011.691
2023-05-10T03:05:32.096Z,1011.686
2023-05-10T03:06:02.112Z,1011.695
2023-05-10T03:06:32.103Z,1011.696
2023-05-10T03:07:02.106Z,1011.682
2023-05-10T03:07:32.101Z,1011.687
2023-05-10T03:08:02.117Z,1011.681
2023-05-10T03:08:32.098Z,1011.684
2023-05-10T03:09:02.093Z,1011.679
2023-05-10T03:09:32.099Z,1011.68
2023-05-10T03:10:02.119Z,1011.686
2023-05-10T03:10:32.101Z,1011.679
2023-05-10T03:11:02.106Z,1011.67
2023-05-10T03:11:32.106Z,1011.662
2023-05-10T03:12:02.101Z,1011.65
2023-05-10T03:12:32.099Z,1011.635
2023-05-10T03:13:02.142Z,1011.625
2023-05-10T03:13:32.132Z,1011.615
2023-05-10T03:14:02.111Z,1011.606
2023-05-10T03:14:32.095Z,1011.599
2023-05-10T03:15:02.126Z,1011.583
2023-05-10T03:15:32.115Z,1011.576
2023-05-10T03:16:02.144Z,1011.568
2023-05-10T03:16:32.280Z,1011.572
2023-05-10T03:17:02.110Z,1011.563
2023-05-10T03:17:32.128Z,1011.555
2023-05-10T03:18:02.123Z,1011.541
2023-05-10T03:18:32.108Z,1011.539
2023-05-10T03:19:02.101Z,1011.531
2023-05-10T03:19:32.104Z,1011.517
2023-05-10T03:20:02.128Z,1011.515
2023-05-10T03:20:32.103Z,1011.512
2023-05-10T03:21:02.103Z,1011.504
2023-05-10T03:21:32.099Z,1011.498
2023-05-10T03:22:02.120Z,1011.493
2023-05-10T03:22:32.106Z,1011.487
2023-05-10T03:23:02.100Z,1011.461
2023-05-10T03:23:32.102Z,1011.449
2023-05-10T03:24:02.121Z,1011.436
2023-05-10T03:24:32.114Z,1011.42
2023-05-10T03:25:02.108Z,1011.419
2023-05-10T03:25:32.105Z,1011.406
2023-05-10T03:26:02.108Z,1011.396
2023-05-10T03:26:32.106Z,1011.384
2023-05-10T03:27:02.103Z,1011.362
2023-05-10T03:27:32.127Z,1011.35
2023-05-10T03:28:02.115Z,1011.351
2023-05-10T03:28:32.113Z,1011.347
2023-05-10T03:29:02.111Z,1011.313
2023-05-10T03:29:32.110Z,1011.295
2023-05-10T03:30:02.117Z,1011.282
2023-05-10T03:30:32.106Z,1011.272
2023-05-10T03:31:02.119Z,1011.263
2023-05-10T03:31:32.115Z,1011.255
2023-05-10T03:32:02.102Z,1011.25
2023-05-10T03:32:32.114Z,1011.254
2023-05-10T03:33:02.184Z,1011.26
2023-05-10T03:33:32.111Z,1011.256
2023-05-10T03:34:02.108Z,1011.256
2023-05-10T03:34:32.107Z,1011.271
2023-05-10T03:35:02.106Z,1011.269
2023-05-10T03:35:32.114Z,1011.272
2023-05-10T03:36:02.123Z,1011.268
2023-05-10T03:36:32.111Z,1011.272
2023-05-10T03:37:02.108Z,1011.268
2023-05-10T03:37:32.108Z,1011.264
2023-05-10T03:38:02.109Z,1011.271
2023-05-10T03:38:32.112Z,1011.243
2023-05-10T03:39:02.111Z,1011.213
2023-05-10T03:39:32.143Z,1011.201
2023-05-10T03:40:02.104Z,1011.187
2023-05-10T03:40:32.110Z,1011.181
2023-05-10T03:41:02.110Z,1011.151
2023-05-10T03:41:32.121Z,1011.12
2023-05-10T03:42:02.118Z,1011.108
2023-05-10T03:42:32.112Z,1011.124
2023-05-10T03:43:02.109Z,1011.116
2023-05-10T03:43:32.113Z,1011.101
2023-05-10T03:44:02.110Z,1011.098
2023-05-10T03:44:32.110Z,1011.096
2023-05-10T03:45:02.108Z,1011.087
2023-05-10T03:45:32.104Z,1011.076
2023-05-10T03:46:02.109Z,1011.056
2023-05-10T03:46:32.174Z,1011.045
2023-05-10T03:47:02.180Z,1011.035
2023-05-10T03:47:32.119Z,1011.016
2023-05-10T03:48:02.164Z,1010.979
2023-05-10T03:48:32.107Z,1010.974
2023-05-10T03:49:02.114Z,1010.966
2023-05-10T03:49:32.112Z,1010.962
2023-05-10T03:50:02.116Z,1010.957
2023-05-10T03:50:32.111Z,1010.952
2023-05-10T03:51:02.113Z,1010.946
2023-05-10T03:51:32.116Z,1010.917
2023-05-10T03:52:02.145Z,1010.922
2023-05-10T03:52:32.109Z,1010.912
2023-05-10T03:53:02.118Z,1010.92
2023-05-10T03:53:32.113Z,1010.905
2023-05-10T03:54:02.119Z,1010.904
2023-05-10T03:54:32.110Z,1010.897
2023-05-10T03:55:02.113Z,1010.887
2023-05-10T03:55:32.116Z,1010.886
2023-05-10T03:56:02.116Z,1010.877
2023-05-10T03:56:32.111Z,1010.888
2023-05-10T03:57:02.124Z,1010.902
2023-05-10T03:57:32.114Z,1010.927
2023-05-10T03:58:02.112Z,1010.948
2023-05-10T03:58:32.113Z,1010.965
2023-05-10T03:59:02.119Z,1010.982
2023-05-10T03:59:32.123Z,1010.987
2023-05-10T04:00:02.129Z,1010.992
2023-05-10T04:00:32.111Z,1010.984
2023-05-10T04:01:02.118Z,1010.989
2023-05-10T04:01:32.120Z,1010.985
2023-05-10T04:02:02.180Z,1010.996
2023-05-10T04:02:32.206Z,1011.013
2023-05-10T04:03:02.178Z,1011.023
2023-05-10T04:03:32.282Z,1011.037
2023-05-10T04:04:02.186Z,1011.031
2023-05-10T04:04:32.117Z,1011.019
2023-05-10T04:05:02.116Z,1010.981
2023-05-10T04:05:32.126Z,1010.947
2023-05-10T04:06:02.268Z,1010.925
2023-05-10T04:06:32.171Z,1010.903
2023-05-10T04:07:02.120Z,1010.889
2023-05-10T04:07:32.129Z,1010.878
2023-05-10T04:08:02.147Z,1010.865
2023-05-10T04:08:32.113Z,1010.846
2023-05-10T04:09:02.118Z,1010.83
2023-05-10T04:09:32.125Z,1010.822
2023-05-10T04:10:02.134Z,1010.819
2023-05-10T04:10:32.112Z,1010.81
2023-05-10T04:11:02.110Z,1010.798
2023-05-10T04:11:32.120Z,1010.8
2023-05-10T04:12:02.118Z,1010.787
2023-05-10T04:12:32.160Z,1010.774
2023-05-10T04:13:02.277Z,1010.769
2023-05-10T04:13:32.125Z,1010.765
2023-05-10T04:14:02.126Z,1010.763
2023-05-10T04:14:32.151Z,1010.757
2023-05-10T04:15:02.140Z,1010.757
2023-05-10T04:15:32.142Z,1010.773
2023-05-10T04:16:02.130Z,1010.783
2023-05-10T04:16:32.157Z,1010.8
2023-05-10T04:17:02.314Z,1010.812
2023-05-10T04:17:32.172Z,1010.822
2023-05-10T04:18:02.254Z,1010.826
2023-05-10T04:18:32.133Z,1010.84
2023-05-10T04:19:02.131Z,1010.854
2023-05-10T04:19:32.132Z,1010.88
2023-05-10T04:20:02.132Z,1010.895
2023-05-10T04:20:32.120Z,1010.904
2023-05-10T04:21:02.121Z,1010.899
2023-05-10T04:21:32.123Z,1010.899
2023-05-10T04:22:02.145Z,1010.908
2023-05-10T04:22:32.128Z,1010.904
2023-05-10T04:23:02.123Z,1010.912
2023-05-10T04:23:32.131Z,1010.917
2023-05-10T04:24:02.156Z,1010.922
2023-05-10T04:24:32.140Z,1010.912
2023-05-10T04:25:02.129Z,1010.907
2023-05-10T04:25:32.126Z,1010.923
2023-05-10T04:26:02.132Z,1010.912
2023-05-10T04:26:32.125Z,1010.901
2023-05-10T04:27:02.123Z,1010.917
2023-05-10T04:27:32.138Z,1010.917
2023-05-10T04:28:02.135Z,1010.905
2023-05-10T04:28:32.142Z,1010.9
2023-05-10T04:29:02.156Z,1010.89
2023-05-10T04:29:32.176Z,1010.888
2023-05-10T04:30:02.121Z,1010.878
2023-05-10T04:30:32.178Z,1010.87
2023-05-10T04:31:02.224Z,1010.86
2023-05-10T04:31:32.132Z,1010.856
2023-05-10T04:32:02.131Z,1010.838
2023-05-10T04:32:32.196Z,1010.837
2023-05-10T04:33:02.157Z,1010.839
2023-05-10T04:33:32.122Z,1010.826
2023-05-10T04:34:02.146Z,1010.831
2023-05-10T04:34:32.131Z,1010.835
2023-05-10T04:35:02.126Z,1010.848
2023-05-10T04:35:32.132Z,1010.861
2023-05-10T04:36:02.143Z,1010.863
2023-05-10T04:36:32.138Z,1010.864
2023-05-10T04:37:02.117Z,1010.869
2023-05-10T04:37:32.127Z,1010.881
2023-05-10T04:38:02.172Z,1010.88
2023-05-10T04:38:32.128Z,1010.895
2023-05-10T04:39:02.141Z,1010.914
2023-05-10T04:39:32.175Z,1010.913
2023-05-10T04:40:02.159Z,1010.913
2023-05-10T04:40:32.125Z,1010.922
2023-05-10T04:41:02.131Z,1010.926
2023-05-10T04:41:32.127Z,1010.953
2023-05-10T04:42:02.153Z,1010.955
2023-05-10T04:42:32.131Z,1010.956
2023-05-10T04:43:02.122Z,1010.961
2023-05-10T04:43:32.126Z,1010.953
2023-05-10T04:44:02.136Z,1010.947
2023-05-10T04:44:32.137Z,1010.96
2023-05-10T04:45:02.124Z,1010.959
2023-05-10T04:45:32.138Z,1010.965
2023-05-10T04:46:02.162Z,1010.972
2023-05-10T04:46:32.208Z,1010.976
2023-05-10T04:47:02.128Z,1010.966
2023-05-10T04:47:32.147Z,1010.964
2023-05-10T04:48:02.176Z,1010.968
2023-05-10T04:48:32.144Z,1010.97
2023-05-10T04:49:02.141Z,1010.953
2023-05-10T04:49:32.122Z,1010.941
2023-05-10T04:50:02.124Z,1010.942
2023-05-10T04:50:32.124Z,1010.947
2023-05-10T04:51:02.149Z,1010.946
2023-05-10T04:51:32.126Z,1010.922
2023-05-10T04:52:02.127Z,1010.927
2023-05-10T04:52:32.126Z,1010.921
2023-05-10T04:53:02.136Z,1010.912
2023-05-10T04:53:32.133Z,1010.908
2023-05-10T04:54:06.497Z,1010.913
2023-05-10T04:54:34.185Z,1010.925
2023-05-10T04:55:02.130Z,1010.95
2023-05-10T04:55:32.141Z,1010.97
2023-05-10T04:56:02.153Z,1010.974
2023-05-10T04:56:32.142Z,1010.982
2023-05-10T04:57:02.145Z,1010.984
2023-05-10T04:57:32.131Z,1010.987
2023-05-10T04:58:02.159Z,1010.999
2023-05-10T04:58:32.128Z,1011.016
2023-05-10T04:59:02.138Z,1011.036
2023-05-10T04:59:32.135Z,1011.063
2023-05-10T05:00:02.158Z,1011.085
2023-05-10T05:00:32.165Z,1011.092
2023-05-10T05:01:02.154Z,1011.101
2023-05-10T05:01:32.226Z,1011.112
2023-05-10T05:02:02.300Z,1011.114
2023-05-10T05:02:32.252Z,1011.101
2023-05-10T05:03:02.285Z,1011.117
2023-05-10T05:03:32.202Z,1011.111
2023-05-10T05:04:02.212Z,1011.106
2023-05-10T05:04:32.136Z,1011.106
2023-05-10T05:05:02.157Z,1011.113
2023-05-10T05:05:32.131Z,1011.081
2023-05-10T05:06:02.137Z,1011.072
2023-05-10T05:06:32.143Z,1011.081
2023-05-10T05:07:02.137Z,1011.09
2023-05-10T05:07:32.175Z,1011.067
2023-05-10T05:08:02.149Z,1011.061
2023-05-10T05:08:32.139Z,1011.066
2023-05-10T05:09:02.149Z,1011.071
2023-05-10T05:09:32.133Z,1011.069
2023-05-10T05:10:02.156Z,1011.072
2023-05-10T05:10:32.142Z,1011.057
2023-05-10T05:11:02.148Z,1011.044
2023-05-10T05:11:32.153Z,1011.039
2023-05-10T05:12:02.146Z,1011.03
2023-05-10T05:12:32.137Z,1011.024
2023-05-10T05:13:02.209Z,1011.029
2023-05-10T05:13:32.169Z,1011.032
2023-05-10T05:14:02.165Z,1011.028
2023-05-10T05:14:32.140Z,1011.029
2023-05-10T05:15:02.152Z,1011.032
2023-05-10T05:15:32.151Z,1011.024
2023-05-10T05:16:02.160Z,1011.03
2023-05-10T05:16:32.175Z,1011.009
2023-05-10T05:17:02.146Z,1011.006
2023-05-10T05:17:32.164Z,1011.008
2023-05-10T05:18:02.199Z,1011.015
2023-05-10T05:18:32.139Z,1011.012
2023-05-10T05:19:02.147Z,1011.011
2023-05-10T05:19:32.138Z,1011.028
2023-05-10T05:20:02.154Z,1011.018
2023-05-10T05:20:32.142Z,1011.001
2023-05-10T05:21:02.149Z,1010.981
2023-05-10T05:21:32.134Z,1010.953
2023-05-10T05:22:02.136Z,1010.936
2023-05-10T05:22:32.137Z,1010.888
2023-05-10T05:23:02.164Z,1010.855
2023-05-10T05:23:32.140Z,1010.823
2023-05-10T05:24:02.144Z,1010.801
2023-05-10T05:24:32.145Z,1010.769
2023-05-10T05:25:02.156Z,1010.745
2023-05-10T05:25:32.146Z,1010.726
2023-05-10T05:26:02.148Z,1010.689
2023-05-10T05:26:32.145Z,1010.683
2023-05-10T05:27:02.145Z,1010.683
2023-05-10T05:27:32.148Z,1010.665
2023-05-10T05:28:02.163Z,1010.679
2023-05-10T05:28:32.143Z,1010.671
2023-05-10T05:29:02.194Z,1010.701
2023-05-10T05:29:32.145Z,1010.723
2023-05-10T05:30:02.149Z,1010.74
2023-05-10T05:30:32.147Z,1010.735
2023-05-10T05:31:02.166Z,1010.726
2023-05-10T05:31:32.168Z,1010.718
2023-05-10T05:32:02.253Z,1010.693
2023-05-10T05:32:32.166Z,1010.698
2023-05-10T05:33:02.189Z,1010.698
2023-05-10T05:33:32.143Z,1010.679
2023-05-10T05:34:02.151Z,1010.67
2023-05-10T05:34:32.148Z,1010.666
2023-05-10T05:35:02.149Z,1010.664
2023-05-10T05:35:32.154Z,1010.646
2023-05-10T05:36:02.141Z,1010.643
2023-05-10T05:36:32.147Z,1010.65
2023-05-10T05:37:02.149Z,1010.634
2023-05-10T05:37:32.178Z,1010.627
2023-05-10T05:38:02.149Z,1010.627
2023-05-10T05:38:32.149Z,1010.626
2023-05-10T05:39:02.152Z,1010.628
2023-05-10T05:39:32.152Z,1010.634
2023-05-10T05:40:02.148Z,1010.632
2023-05-10T05:40:32.152Z,1010.612
2023-05-10T05:41:02.153Z,1010.604
2023-05-10T05:41:32.150Z,1010.601
2023-05-10T05:42:02.156Z,1010.589
2023-05-10T05:42:32.150Z,1010.585
2023-05-10T05:43:02.154Z,1010.565
2023-05-10T05:43:32.147Z,1010.56
2023-05-10T05:44:02.159Z,1010.556
2023-05-10T05:44:32.179Z,1010.545
2023-05-10T05:45:02.187Z,1010.517
2023-05-10T05:45:32.172Z,1010.496
2023-05-10T05:46:02.207Z,1010.479
2023-05-10T05:46:32.149Z,1010.461
2023-05-10T05:47:02.152Z,1010.456
2023-05-10T05:47:32.223Z,1010.445
2023-05-10T05:48:02.231Z,1010.435
2023-05-10T05:48:32.166Z,1010.419
2023-05-10T05:49:02.152Z,1010.403
2023-05-10T05:49:32.152Z,1010.378
2023-05-10T05:50:02.155Z,1010.378
2023-05-10T05:50:32.156Z,1010.374
2023-05-10T05:51:02.193Z,1010.391
2023-05-10T05:51:32.157Z,1010.412
2023-05-10T05:52:02.166Z,1010.417
2023-05-10T05:52:32.148Z,1010.436
2023-05-10T05:53:02.152Z,1010.439